Bentu Airport


Codes: HSBT/
Name: Bentu Airport
City: Bentu
Country: South Sudan
Elevation: 2000 ft.
Wikipedia:

Photos at Bentu Airport


   Photos courtesy of SpottingLog. You can add your own sightings and photos by signing up for a free trial today.



No photos found.

Weather at Bentu Airport


Time (UTC)DescriptionTempratureWindCloud coverageVisibilityPressureHumidity
25-Jun-2024 15:00Overcast Clouds35°C7 mph, SW98%10000m1007hPa36%
25-Jun-2024 18:00Overcast Clouds30°C4 mph, SW99%10000m1008hPa53%
25-Jun-2024 21:00Overcast Clouds26°C4 mph, SW100%10000m1009hPa68%
26-Jun-2024 00:00Overcast Clouds25°C4 mph, SW98%10000m1008hPa75%
26-Jun-2024 03:00Overcast Clouds24°C4 mph, SW95%10000m1009hPa79%
26-Jun-2024 06:00Broken Clouds28°C7 mph, S70%10000m1010hPa61%
26-Jun-2024 09:00Overcast Clouds34°C7 mph, SE85%10000m1009hPa39%
26-Jun-2024 12:00Broken Clouds36°C7 mph, S84%10000m1006hPa32%
26-Jun-2024 15:00Overcast Clouds35°C7 mph, S99%10000m1005hPa33%
26-Jun-2024 18:00Overcast Clouds29°C7 mph, SE86%10000m1007hPa52%
26-Jun-2024 21:00Broken Clouds28°C4 mph, SE62%10000m1008hPa57%
27-Jun-2024 00:00Broken Clouds27°C4 mph, SW73%10000m1007hPa62%
27-Jun-2024 03:00Broken Clouds25°C4 mph, S78%10000m1008hPa69%
27-Jun-2024 06:00Overcast Clouds27°C4 mph, S88%10000m1010hPa64%
27-Jun-2024 09:00Overcast Clouds30°C4 mph, SE99%10000m1010hPa53%
27-Jun-2024 12:00Light Rain33°C9 mph, S95%10000m1008hPa45%
27-Jun-2024 15:00Overcast Clouds31°C4 mph, SE97%10000m1007hPa46%
27-Jun-2024 18:00Light Rain25°C4 mph, E98%10000m1010hPa69%
27-Jun-2024 21:00Overcast Clouds24°C4 mph, S96%10000m1010hPa69%
28-Jun-2024 00:00Overcast Clouds25°C4 mph, S98%10000m1010hPa66%
28-Jun-2024 03:00Overcast Clouds24°C4 mph, SE100%10000m1011hPa71%
28-Jun-2024 06:00Light Rain26°C7 mph, SE95%10000m1013hPa67%
28-Jun-2024 09:00Overcast Clouds30°C9 mph, S100%10000m1011hPa52%
28-Jun-2024 12:00Broken Clouds35°C9 mph, S77%10000m1008hPa34%
28-Jun-2024 15:00Broken Clouds34°C7 mph, SE81%10000m1008hPa34%
28-Jun-2024 18:00Overcast Clouds28°C4 mph, SE90%10000m1009hPa52%
28-Jun-2024 21:00Overcast Clouds26°C4 mph, SW89%10000m1011hPa60%
29-Jun-2024 00:00Overcast Clouds25°C2 mph, SW94%10000m1010hPa64%
29-Jun-2024 03:00Light Rain23°C2 mph, SW100%10000m1012hPa80%
29-Jun-2024 06:00Light Rain26°C7 mph, E95%10000m1014hPa67%
29-Jun-2024 09:00Overcast Clouds31°C7 mph, E100%10000m1013hPa46%
29-Jun-2024 12:00Overcast Clouds29°C9 mph, SE99%10000m1010hPa48%
29-Jun-2024 15:00Overcast Clouds30°C4 mph, SE100%10000m1008hPa48%
29-Jun-2024 18:00Overcast Clouds27°C2 mph, S100%10000m1010hPa56%
29-Jun-2024 21:00Overcast Clouds25°C2 mph, SW100%10000m1011hPa62%
30-Jun-2024 00:00Overcast Clouds25°C4 mph, SW100%10000m1011hPa67%
30-Jun-2024 03:00Overcast Clouds24°C4 mph, SW93%10000m1011hPa77%
30-Jun-2024 06:00Overcast Clouds27°C2 mph, SW96%10000m1012hPa64%
30-Jun-2024 09:00Overcast Clouds32°C7 mph, SE93%10000m1012hPa47%
30-Jun-2024 12:00Broken Clouds36°C7 mph, S80%10000m1008hPa31%